Latest METARs, TAFs and NOTAMs for ETSI


---------------------------------------------------------------------------
	(OBSERVATIONS)
ETSI 081620Z 25019G32KT 9999 FEW050 SCT080 BKN110 12/03 Q1002
    BLU=
ETSI 081520Z 24024G47KT 9999 FEW050 SCT080 BKN110 13/02 Q1002
    BLU=
ETSI 081420Z 24016G26KT 9999 FEW050 BKN090 BKN240 13/01 Q1002
    BLU=
ETSI 081406Z 24020G37KT 9999 FEW050 BKN080 BKN240 13/01 Q1002
    BLU=
---------------------------------------------------------------------------
	(FC)
TAF ETSI 081400Z NIL=
---------------------------------------------------------------------------
	(TERMINAL AREA FORECAST)
ETSI 081400Z NIL=
---------------------------------------------------------------------------
	(NOTAMS)


ETSI P0213/16 AD ETSI: RWY25L CABLE NO. 1 OUT OF SERVICE. 12
    JAN 07:59 2016 UNTIL 31 MAR 15:00 2016. CREATED: 12 JAN 08:08
    2016

ETSI P0358/16 AD ETSI: AD OPENING HOURS CHANGED TO: MON-THU 0800-1500
    FRI 0800-1200. 18 JAN 06:50 2016 UNTIL 25 MAR 13:00 2016.
    CREATED: 18 JAN 07:00 2016

ETSI P0448/16 AD ETSI: RWY25R CABLE NO.2 OUT OF SERVICE. 20 JAN
    09:40 2016 UNTIL 27 MAR 13:00 2016. CREATED: 20 JAN 09:41
    2016

ETSI P0817/16 AD ETSI: AERODROME CLOSED EXCEPT CIVIL AIR TRAFFIC
    WITH PPR. 08 FEB 08:00 2016 UNTIL 10 FEB 08:00 2016. CREATED:
    04 FEB 09:06 2016

ETSI P8456/15 AD ETSI: TACAN APCH RWY07R SUSPENDED. 04 DEC 07:12
    2015 UNTIL 04 MAR 13:00 2016. CREATED: 04 DEC 07:17 2015

ETSI P8458/15 AD ETSI: LIMITED RADAR COVERAGE BELOW 5000FT MSL.
    DETAILED INFORMATION BY INGO RADAR. 04 DEC 07:16 2015 UNTIL
    04 MAR 13:00 2016. CREATED: 04 DEC 07:19 2015

ETSI P8459/15 AD ETSI: NO SRA POSSIBLE. 04 DEC 07:18 2015 UNTIL
    04 MAR 13:00 2016. CREATED: 04 DEC 07:20 2015

ETSI P8460/15 AD ETSI: PAR RWY25R/07L OUT OF SERVICE. 04 DEC
    07:19 2015 UNTIL 04 MAR 13:00 2016. CREATED: 04 DEC 07:21
    2015

ETSI P8461/15 AD ETSI: PAR RWY25L/07R OUT OF SERVICE. 04 DEC
    07:20 2015 UNTIL 04 MAR 13:00 2016. CREATED: 04 DEC 07:23
    2015

ETSI V0163/16 [US DOD PROCEDURAL NOTAM] IFR TAKE-OFF MINIMUMS
    AND (OBSTACLE) DEPARTURE PROCEDURES AMENDMENT INGOLSTADT
    GERMANY (ETSI) MSA 25 NM FROM IGL TACAN 3700FT ALL SECTORS.
    05 FEB 17:10 2016 UNTIL 31 MAR 15:00 2016. CREATED: 05 FEB
    17:10 2016

---------------------------------------------------------------------------